createdAt,value
2022-08-21T00:00:58.875Z,100.00
2022-08-21T00:04:04.480Z,100.00
2022-08-21T00:07:12.639Z,100.00
2022-08-21T00:10:18.288Z,100.00
2022-08-21T00:13:24.471Z,100.00
2022-08-21T00:16:30.771Z,100.00
2022-08-21T00:19:36.999Z,100.00
2022-08-21T00:22:43.175Z,100.00
2022-08-21T00:25:48.437Z,100.00
2022-08-21T00:28:54.382Z,100.00
2022-08-21T00:32:01.057Z,100.00
2022-08-21T00:35:07.839Z,100.00
2022-08-21T00:38:13.454Z,100.00
2022-08-21T00:41:37.082Z,100.00
2022-08-21T00:44:29.055Z,100.00
2022-08-21T00:47:34.559Z,100.00
2022-08-21T00:50:43.048Z,100.00
2022-08-21T00:53:51.707Z,100.00
2022-08-21T00:56:55.531Z,100.00
2022-08-21T01:00:05.265Z,100.00
2022-08-21T01:03:13.185Z,100.00
2022-08-21T01:06:19.690Z,100.00
2022-08-21T01:09:27.195Z,100.00
2022-08-21T01:12:33.986Z,100.00
2022-08-21T01:15:43.141Z,100.00
2022-08-21T01:18:49.568Z,100.00
2022-08-21T01:21:55.373Z,100.00
2022-08-21T01:25:00.901Z,100.00
2022-08-21T01:28:07.219Z,100.00
2022-08-21T01:31:13.770Z,100.00
2022-08-21T01:34:20.446Z,100.00
2022-08-21T01:37:20.910Z,100.00
2022-08-21T01:40:27.081Z,100.00
2022-08-21T01:43:35.625Z,100.00
2022-08-21T01:46:41.389Z,100.00
2022-08-21T01:49:47.573Z,100.00
2022-08-21T01:52:53.292Z,100.00
2022-08-21T01:56:00.039Z,100.00
2022-08-21T01:59:06.364Z,100.00
2022-08-21T02:02:11.605Z,100.00
2022-08-21T02:05:17.163Z,100.00
2022-08-21T02:08:22.588Z,100.00
2022-08-21T02:11:28.771Z,100.00
2022-08-21T02:14:34.562Z,100.00
2022-08-21T02:17:39.563Z,100.00
2022-08-21T02:20:55.815Z,100.00
2022-08-21T02:24:00.928Z,100.00
2022-08-21T02:27:07.576Z,100.00
2022-08-21T02:30:14.126Z,100.00
2022-08-21T02:33:20.976Z,100.00
2022-08-21T02:36:27.822Z,100.00
2022-08-21T02:39:33.390Z,100.00
2022-08-21T02:42:39.318Z,100.00
2022-08-21T02:45:45.350Z,100.00
2022-08-21T02:48:51.324Z,100.00
2022-08-21T02:51:57.759Z,100.00
2022-08-21T02:55:03.246Z,100.00
2022-08-21T02:58:08.963Z,100.00
2022-08-21T03:01:18.972Z,100.00
2022-08-21T03:04:26.313Z,100.00
2022-08-21T03:07:32.980Z,100.00
2022-08-21T03:10:39.752Z,100.00
2022-08-21T03:13:47.289Z,100.00
2022-08-21T03:16:53.127Z,100.00
2022-08-21T03:19:58.416Z,100.00
2022-08-21T03:22:57.485Z,100.00
2022-08-21T03:26:03.767Z,100.00
2022-08-21T03:29:09.247Z,100.00
2022-08-21T03:32:15.915Z,100.00
2022-08-21T03:35:22.550Z,100.00
2022-08-21T03:38:28.966Z,100.00
2022-08-21T03:41:28.777Z,100.00
2022-08-21T03:44:36.826Z,100.00
2022-08-21T03:47:43.517Z,100.00
2022-08-21T03:50:54.538Z,100.00
2022-08-21T03:54:00.181Z,100.00
2022-08-21T03:57:06.548Z,100.00
2022-08-21T04:00:13.048Z,100.00
2022-08-21T04:03:19.781Z,100.00
2022-08-21T04:06:19.316Z,100.00
2022-08-21T04:09:11.785Z,100.00
2022-08-21T04:12:17.269Z,100.00
2022-08-21T04:15:22.666Z,100.00
2022-08-21T04:18:28.683Z,100.00
2022-08-21T04:21:35.264Z,100.00
2022-08-21T04:24:41.269Z,100.00
2022-08-21T04:27:47.748Z,100.00
2022-08-21T04:30:53.343Z,100.00
2022-08-21T04:33:59.070Z,100.00
2022-08-21T04:37:06.856Z,100.00
2022-08-21T04:40:12.825Z,98.21
2022-08-21T04:43:21.221Z,99.24
2022-08-21T04:46:26.583Z,98.38
2022-08-21T04:49:25.800Z,98.97
2022-08-21T04:52:24.429Z,97.62
2022-08-21T04:55:31.483Z,95.62
2022-08-21T04:58:37.087Z,93.98
2022-08-21T05:01:43.839Z,95.28
2022-08-21T05:04:49.388Z,95.07
2022-08-21T05:07:57.045Z,94.27
2022-08-21T05:11:03.869Z,92.27
2022-08-21T05:14:10.517Z,88.99
2022-08-21T05:17:16.210Z,88.10
2022-08-21T05:20:24.570Z,89.49
2022-08-21T05:23:29.328Z,88.05
2022-08-21T05:26:34.144Z,88.98
2022-08-21T05:29:42.851Z,90.68
2022-08-21T05:32:48.056Z,91.06
2022-08-21T05:35:54.689Z,89.76
2022-08-21T05:39:00.813Z,88.05
2022-08-21T05:42:06.173Z,86.46
2022-08-21T05:45:11.296Z,87.49
2022-08-21T05:48:28.874Z,83.55
2022-08-21T05:51:34.736Z,83.73
2022-08-21T05:54:41.105Z,82.69
2022-08-21T05:57:48.721Z,83.38
2022-08-21T06:00:56.245Z,83.51
2022-08-21T06:04:01.502Z,83.48
2022-08-21T06:07:08.970Z,82.46
2022-08-21T06:10:15.251Z,82.82
2022-08-21T06:13:22.356Z,82.08
2022-08-21T06:16:30.553Z,81.20
2022-08-21T06:19:36.762Z,82.29
2022-08-21T06:22:42.632Z,81.80
2022-08-21T06:25:48.343Z,82.55
2022-08-21T06:28:53.984Z,83.25
2022-08-21T06:32:00.499Z,83.83
2022-08-21T06:35:06.158Z,83.42
2022-08-21T06:38:12.797Z,83.24
2022-08-21T06:41:17.158Z,82.32
2022-08-21T06:44:22.539Z,81.72
2022-08-21T06:47:22.550Z,81.34
2022-08-21T06:50:16.196Z,81.35
2022-08-21T06:53:23.774Z,81.67
2022-08-21T06:56:28.580Z,81.90
2022-08-21T06:59:35.606Z,80.91
2022-08-21T07:02:42.680Z,80.17
2022-08-21T07:05:42.303Z,79.77
2022-08-21T07:08:49.323Z,78.98
2022-08-21T07:11:56.158Z,77.88
2022-08-21T07:15:01.425Z,77.31
2022-08-21T07:18:01.048Z,77.30
2022-08-21T07:21:06.917Z,76.85
2022-08-21T07:24:12.578Z,76.83
2022-08-21T07:27:18.586Z,76.90
2022-08-21T07:30:25.148Z,75.48
2022-08-21T07:33:30.888Z,74.05
2022-08-21T07:36:37.892Z,74.05
2022-08-21T07:39:45.859Z,74.84
2022-08-21T07:42:59.565Z,74.73
2022-08-21T07:46:05.264Z,74.08
2022-08-21T07:49:13.093Z,75.05
2022-08-21T07:52:18.429Z,74.18
2022-08-21T07:55:29.604Z,73.64
2022-08-21T07:58:36.225Z,72.80
2022-08-21T08:01:41.753Z,73.69
2022-08-21T08:04:50.635Z,72.61
2022-08-21T08:07:55.969Z,71.23
2022-08-21T08:11:02.903Z,73.72
2022-08-21T08:14:10.891Z,73.33
2022-08-21T08:17:17.686Z,71.84
2022-08-21T08:20:24.055Z,72.46
2022-08-21T08:23:30.516Z,71.22
2022-08-21T08:26:35.824Z,71.68
2022-08-21T08:29:40.990Z,72.63
2022-08-21T08:32:47.323Z,70.65
2022-08-21T08:35:54.167Z,71.41
2022-08-21T08:38:59.877Z,69.85
2022-08-21T08:42:32.150Z,71.58
2022-08-21T08:45:27.683Z,70.23
2022-08-21T08:48:52.802Z,69.12
2022-08-21T08:52:03.388Z,69.95
2022-08-21T08:55:34.042Z,68.67
2022-08-21T08:58:41.708Z,69.50
2022-08-21T09:01:28.017Z,69.20
2022-08-21T09:04:21.916Z,68.50
2022-08-21T09:07:51.783Z,68.33
2022-08-21T09:11:05.533Z,67.90
2022-08-21T09:14:41.271Z,67.08
2022-08-21T09:18:12.250Z,67.74
2022-08-21T09:21:22.075Z,67.42
2022-08-21T09:25:16.406Z,65.57
2022-08-21T09:28:27.109Z,64.50
2022-08-21T09:31:42.574Z,66.21
2022-08-21T09:34:48.447Z,65.85
2022-08-21T09:38:12.972Z,67.38
2022-08-21T09:41:25.883Z,67.59
2022-08-21T09:44:34.628Z,68.27
2022-08-21T09:47:42.888Z,67.68
2022-08-21T09:50:48.459Z,67.97
2022-08-21T09:53:57.878Z,68.71
2022-08-21T09:57:25.040Z,66.12
2022-08-21T10:00:36.726Z,66.13
2022-08-21T10:03:42.169Z,66.60
2022-08-21T10:06:48.228Z,66.40
2022-08-21T10:09:53.439Z,66.66
2022-08-21T10:13:18.166Z,67.48
2022-08-21T10:16:44.219Z,64.67
2022-08-21T10:20:16.363Z,64.92
2022-08-21T10:23:53.579Z,64.07
2022-08-21T10:27:10.025Z,64.75
2022-08-21T10:30:26.684Z,63.53
2022-08-21T10:33:47.224Z,61.37
2022-08-21T10:37:24.712Z,61.78
2022-08-21T10:40:45.330Z,62.46
2022-08-21T10:44:29.007Z,60.88
2022-08-21T10:47:58.197Z,61.39
2022-08-21T10:51:11.392Z,61.90
2022-08-21T10:54:30.234Z,60.57
2022-08-21T10:57:55.768Z,60.71
2022-08-21T11:01:08.606Z,59.30
2022-08-21T11:04:39.680Z,59.72
2022-08-21T11:07:53.891Z,59.13
2022-08-21T11:11:16.120Z,57.60
2022-08-21T11:14:55.760Z,56.05
2022-08-21T11:18:15.077Z,55.91
2022-08-21T11:21:46.691Z,55.59
2022-08-21T11:25:36.526Z,56.37
2022-08-21T11:28:48.809Z,56.94
2022-08-21T11:32:22.518Z,56.80
2022-08-21T11:35:44.538Z,56.82
2022-08-21T11:39:00.024Z,56.26
2022-08-21T11:42:53.224Z,57.73
2022-08-21T11:46:06.478Z,56.63
2022-08-21T11:49:23.855Z,53.89
2022-08-21T11:52:39.528Z,53.21
2022-08-21T11:56:12.087Z,54.17
2022-08-21T11:59:22.561Z,54.25
2022-08-21T12:02:32.578Z,54.37
2022-08-21T12:05:47.474Z,53.96
2022-08-21T12:09:01.257Z,54.81
2022-08-21T12:12:22.947Z,53.80
2022-08-21T12:15:37.256Z,52.06
2022-08-21T12:18:46.091Z,53.35
2022-08-21T12:22:22.753Z,53.50
2022-08-21T12:25:32.158Z,53.82
2022-08-21T12:28:39.149Z,54.63
2022-08-21T12:31:43.952Z,53.75
2022-08-21T12:35:15.552Z,54.71
2022-08-21T12:38:27.004Z,53.81
2022-08-21T12:41:39.309Z,52.34
2022-08-21T12:44:54.681Z,52.39
2022-08-21T12:48:06.292Z,50.47
2022-08-21T12:51:29.148Z,50.10
2022-08-21T12:54:46.698Z,49.76
2022-08-21T12:57:54.273Z,49.45
2022-08-21T13:01:07.861Z,52.65
2022-08-21T13:04:23.378Z,50.78
2022-08-21T13:07:32.634Z,51.06
2022-08-21T13:10:43.414Z,50.62
2022-08-21T13:13:51.104Z,49.13
2022-08-21T13:16:56.231Z,50.02
2022-08-21T13:20:16.453Z,51.88
2022-08-21T13:23:41.151Z,50.99
2022-08-21T13:26:46.561Z,49.96
2022-08-21T13:29:54.346Z,50.59
2022-08-21T13:33:01.719Z,51.44
2022-08-21T13:36:19.984Z,51.82
2022-08-21T13:39:28.384Z,48.83
2022-08-21T13:42:33.897Z,49.34
2022-08-21T13:45:47.716Z,48.58
2022-08-21T13:48:54.098Z,50.72
2022-08-21T13:52:00.310Z,49.62
2022-08-21T13:55:14.806Z,50.69
2022-08-21T13:58:21.369Z,49.62
2022-08-21T14:01:40.733Z,50.73
2022-08-21T14:04:53.273Z,50.95
2022-08-21T14:07:59.207Z,51.36
2022-08-21T14:11:05.791Z,50.94
2022-08-21T14:14:16.735Z,50.15
2022-08-21T14:17:29.053Z,49.52
2022-08-21T14:20:49.623Z,50.82
2022-08-21T14:23:55.185Z,50.48
2022-08-21T14:27:07.555Z,50.67
2022-08-21T14:30:20.609Z,50.22
2022-08-21T14:33:25.087Z,50.10
2022-08-21T14:36:17.843Z,51.00
2022-08-21T14:39:24.395Z,51.15
2022-08-21T14:42:31.650Z,50.91
2022-08-21T14:45:45.087Z,51.55
2022-08-21T14:48:51.823Z,51.18
2022-08-21T14:51:54.271Z,51.65
2022-08-21T14:55:00.685Z,51.76
2022-08-21T14:58:07.855Z,51.89
2022-08-21T15:01:13.159Z,51.98
2022-08-21T15:04:18.934Z,52.02
2022-08-21T15:07:25.672Z,52.50
2022-08-21T15:10:32.658Z,52.92
2022-08-21T15:13:38.610Z,53.93
2022-08-21T15:16:45.170Z,53.56
2022-08-21T15:19:50.851Z,53.85
2022-08-21T15:22:56.848Z,53.31
2022-08-21T15:26:05.566Z,54.55
2022-08-21T15:29:11.733Z,51.78
2022-08-21T15:32:38.114Z,51.31
2022-08-21T15:35:44.237Z,51.23
2022-08-21T15:38:51.781Z,50.85
2022-08-21T15:41:58.057Z,51.33
2022-08-21T15:45:03.861Z,52.13
2022-08-21T15:48:09.734Z,52.22
2022-08-21T15:51:15.612Z,52.27
2022-08-21T15:54:20.980Z,53.38
2022-08-21T15:57:31.769Z,53.92
2022-08-21T16:00:38.575Z,54.25
2022-08-21T16:03:44.419Z,54.40
2022-08-21T16:06:54.375Z,53.85
2022-08-21T16:09:52.184Z,54.24
2022-08-21T16:13:07.369Z,54.56
2022-08-21T16:16:13.841Z,54.92
2022-08-21T16:19:13.100Z,56.39
2022-08-21T16:22:19.505Z,56.43
2022-08-21T16:25:26.154Z,56.79
2022-08-21T16:28:35.927Z,56.94
2022-08-21T16:31:42.978Z,57.00
2022-08-21T16:34:49.223Z,57.88
2022-08-21T16:37:55.679Z,58.53
2022-08-21T16:41:02.263Z,58.96
2022-08-21T16:44:09.780Z,58.63
2022-08-21T16:47:27.281Z,59.11
2022-08-21T16:50:27.630Z,59.83
2022-08-21T16:53:33.164Z,60.09
2022-08-21T16:56:40.052Z,60.33
2022-08-21T16:59:45.286Z,60.52
2022-08-21T17:02:59.454Z,60.95
2022-08-21T17:06:05.757Z,61.48
2022-08-21T17:09:13.570Z,61.81
2022-08-21T17:12:20.158Z,62.29
2022-08-21T17:15:34.998Z,62.38
2022-08-21T17:18:39.654Z,62.70
2022-08-21T17:21:45.831Z,62.65
2022-08-21T17:24:54.395Z,62.50
2022-08-21T17:27:59.953Z,62.68
2022-08-21T17:31:10.382Z,62.54
2022-08-21T17:34:10.378Z,62.72
2022-08-21T17:37:08.699Z,62.88
2022-08-21T17:40:14.466Z,62.66
2022-08-21T17:43:22.934Z,63.64
2022-08-21T17:46:33.965Z,63.70
2022-08-21T17:49:40.356Z,63.40
2022-08-21T17:52:38.477Z,63.00
2022-08-21T17:55:24.740Z,62.95
2022-08-21T17:58:19.712Z,63.42
2022-08-21T18:01:06.143Z,63.56
2022-08-21T18:03:58.308Z,63.68
2022-08-21T18:06:57.649Z,63.76
2022-08-21T18:10:03.079Z,63.53
2022-08-21T18:13:09.404Z,63.67
2022-08-21T18:16:21.820Z,63.42
2022-08-21T18:19:30.374Z,63.53
2022-08-21T18:22:29.192Z,63.47
2022-08-21T18:25:22.702Z,63.37
2022-08-21T18:28:27.604Z,62.96
2022-08-21T18:31:33.854Z,62.64
2022-08-21T18:34:45.746Z,63.02
2022-08-21T18:37:55.506Z,63.61
2022-08-21T18:41:10.030Z,63.45
2022-08-21T18:44:13.491Z,63.05
2022-08-21T18:47:25.432Z,62.96
2022-08-21T18:50:34.677Z,63.02
2022-08-21T18:53:40.453Z,63.47
2022-08-21T18:56:52.209Z,63.82
2022-08-21T19:00:01.902Z,64.66
2022-08-21T19:03:08.332Z,65.29
2022-08-21T19:06:13.704Z,66.27
2022-08-21T19:09:22.707Z,65.92
2022-08-21T19:12:33.361Z,66.59
2022-08-21T19:15:39.376Z,66.63
2022-08-21T19:18:44.614Z,67.77
2022-08-21T19:21:49.661Z,68.12
2022-08-21T19:24:55.215Z,67.89
2022-08-21T19:28:00.803Z,68.16
2022-08-21T19:31:16.453Z,66.51
2022-08-21T19:34:30.576Z,66.89
2022-08-21T19:37:35.886Z,68.08
2022-08-21T19:40:41.731Z,68.80
2022-08-21T19:43:48.397Z,69.13
2022-08-21T19:46:56.790Z,69.83
2022-08-21T19:50:17.299Z,70.00
2022-08-21T19:53:16.485Z,70.96
2022-08-21T19:56:26.639Z,71.01
2022-08-21T19:59:35.335Z,71.39
2022-08-21T20:02:47.944Z,71.52
2022-08-21T20:05:51.044Z,71.22
2022-08-21T20:08:59.325Z,70.68
2022-08-21T20:12:10.265Z,70.22
2022-08-21T20:15:15.519Z,70.30
2022-08-21T20:18:26.823Z,69.83
2022-08-21T20:21:28.602Z,69.26
2022-08-21T20:24:35.379Z,68.53
2022-08-21T20:27:42.369Z,68.41
2022-08-21T20:30:48.444Z,67.80
2022-08-21T20:33:54.368Z,67.47
2022-08-21T20:37:00.732Z,65.96
2022-08-21T20:40:07.878Z,65.25
2022-08-21T20:43:14.576Z,64.80
2022-08-21T20:46:21.064Z,63.50
2022-08-21T20:49:30.545Z,62.12
2022-08-21T20:52:35.848Z,61.19
2022-08-21T20:55:42.426Z,59.39
2022-08-21T20:58:55.101Z,58.54
2022-08-21T21:02:01.794Z,57.71
2022-08-21T21:05:27.707Z,57.36
2022-08-21T21:08:46.636Z,57.04
2022-08-21T21:11:56.911Z,56.01
2022-08-21T21:15:05.613Z,55.58
2022-08-21T21:18:24.994Z,54.99
2022-08-21T21:21:51.721Z,54.25
2022-08-21T21:25:39.786Z,54.04
2022-08-21T21:28:43.073Z,53.48
2022-08-21T21:31:49.530Z,52.65
2022-08-21T21:34:58.346Z,52.13
2022-08-21T21:38:27.700Z,52.17
2022-08-21T21:41:42.889Z,51.83
2022-08-21T21:45:02.625Z,51.41
2022-08-21T21:48:47.263Z,51.45
2022-08-21T21:52:12.104Z,50.88
2022-08-21T21:55:29.672Z,51.16
2022-08-21T21:59:10.617Z,51.61
2022-08-21T22:02:47.344Z,51.55
2022-08-21T22:06:21.469Z,51.38
2022-08-21T22:09:58.250Z,51.25
2022-08-21T22:13:33.464Z,51.70
2022-08-21T22:16:39.769Z,52.28
2022-08-21T22:19:53.825Z,52.01
2022-08-21T22:23:00.683Z,51.97
2022-08-21T22:26:10.860Z,51.95
2022-08-21T22:29:17.503Z,51.96
2022-08-21T22:32:24.257Z,52.00
2022-08-21T22:35:36.313Z,52.46
2022-08-21T22:38:47.834Z,52.01
2022-08-21T22:42:01.289Z,51.55
2022-08-21T22:45:12.051Z,52.02
2022-08-21T22:48:24.014Z,51.68
2022-08-21T22:51:37.126Z,51.80
2022-08-21T22:54:56.983Z,51.54
2022-08-21T22:58:04.563Z,51.85
2022-08-21T23:01:18.935Z,51.79
2022-08-21T23:04:32.218Z,51.44
2022-08-21T23:07:55.974Z,51.41
2022-08-21T23:11:02.499Z,51.29
2022-08-21T23:14:14.044Z,51.33
2022-08-21T23:17:36.495Z,51.75
2022-08-21T23:21:02.773Z,51.37
2022-08-21T23:24:46.705Z,51.53
2022-08-21T23:28:09.910Z,51.11
2022-08-21T23:31:23.338Z,51.27
2022-08-21T23:34:40.515Z,51.13
2022-08-21T23:38:09.232Z,51.00
2022-08-21T23:41:20.368Z,50.77
2022-08-21T23:44:53.048Z,50.72
2022-08-21T23:48:19.841Z,50.71
2022-08-21T23:51:35.760Z,50.78
2022-08-21T23:55:17.832Z,50.86
2022-08-21T23:58:57.637Z,50.57
